createdAt,value
2023-07-18T00:00:53.448Z,14.90
2023-07-18T00:05:19.192Z,14.90
2023-07-18T00:09:44.561Z,14.90
2023-07-18T00:14:10.117Z,14.90
2023-07-18T00:18:35.357Z,14.90
2023-07-18T00:23:00.637Z,14.90
2023-07-18T00:27:25.847Z,14.90
2023-07-18T00:31:51.737Z,14.80
2023-07-18T00:36:17.927Z,14.80
2023-07-18T00:40:43.423Z,14.80
2023-07-18T00:45:09.648Z,14.80
2023-07-18T00:49:35.933Z,14.80
2023-07-18T00:54:01.888Z,14.70
2023-07-18T00:58:29.524Z,16.10
2023-07-18T01:02:55.198Z,14.80
2023-07-18T01:07:21.459Z,14.80
2023-07-18T01:11:47.006Z,14.80
2023-07-18T01:16:13.939Z,14.90
2023-07-18T01:20:40.867Z,14.80
2023-07-18T01:25:06.743Z,14.80
2023-07-18T01:29:34.058Z,14.80
2023-07-18T01:33:59.402Z,14.80
2023-07-18T01:38:30.611Z,14.80
2023-07-18T01:42:57.033Z,14.70
2023-07-18T01:47:22.497Z,14.60
2023-07-18T01:51:48.105Z,14.60
2023-07-18T01:56:13.521Z,14.60
2023-07-18T02:00:38.781Z,14.60
2023-07-18T02:05:05.377Z,14.60
2023-07-18T02:09:30.673Z,14.50
2023-07-18T02:13:56.070Z,14.50
2023-07-18T02:18:21.498Z,14.50
2023-07-18T02:22:47.393Z,14.40
2023-07-18T02:27:12.880Z,14.40
2023-07-18T02:31:39.195Z,14.40
2023-07-18T02:36:07.518Z,14.30
2023-07-18T02:40:33.071Z,14.40
2023-07-18T02:44:58.677Z,14.40
2023-07-18T02:49:24.165Z,14.40
2023-07-18T02:53:52.958Z,14.40
2023-07-18T02:58:18.061Z,14.40
2023-07-18T03:02:43.694Z,14.30
2023-07-18T03:07:09.005Z,14.30
2023-07-18T03:11:34.405Z,14.20
2023-07-18T03:16:00.632Z,14.20
2023-07-18T03:20:25.911Z,14.10
2023-07-18T03:24:52.932Z,14.10
2023-07-18T03:29:19.165Z,14.10
2023-07-18T03:33:44.638Z,13.90
2023-07-18T03:38:10.213Z,14.00
2023-07-18T03:42:35.831Z,14.00
2023-07-18T03:47:11.218Z,14.00
2023-07-18T03:51:44.980Z,12.90
2023-07-18T03:56:10.590Z,14.00
2023-07-18T04:00:35.766Z,14.00
2023-07-18T04:05:01.187Z,14.10
2023-07-18T04:09:26.677Z,14.10
2023-07-18T04:13:52.184Z,14.10
2023-07-18T04:18:17.661Z,14.20
2023-07-18T04:22:43.330Z,14.20
2023-07-18T04:27:09.067Z,14.20
2023-07-18T04:31:34.500Z,14.20
2023-07-18T04:35:59.920Z,14.30
2023-07-18T04:40:25.744Z,14.20
2023-07-18T04:44:51.190Z,14.20
2023-07-18T04:49:17.482Z,14.30
2023-07-18T04:53:42.770Z,14.30
2023-07-18T04:58:09.184Z,14.40
2023-07-18T05:02:34.757Z,14.60
2023-07-18T05:07:02.805Z,14.60
2023-07-18T05:11:27.995Z,14.60
2023-07-18T05:15:53.439Z,14.80
2023-07-18T05:20:19.912Z,14.90
2023-07-18T05:24:45.120Z,15.00
2023-07-18T05:29:10.523Z,15.20
2023-07-18T05:33:36.049Z,15.30
2023-07-18T05:38:04.395Z,15.30
2023-07-18T05:42:29.719Z,15.50
2023-07-18T05:46:54.964Z,15.60
2023-07-18T05:51:20.705Z,15.70
2023-07-18T05:55:46.442Z,15.90
2023-07-18T06:00:12.619Z,16.00
2023-07-18T06:04:39.001Z,16.20
2023-07-18T06:09:04.177Z,16.40
2023-07-18T06:13:29.591Z,16.50
2023-07-18T06:17:55.132Z,16.70
2023-07-18T06:22:20.352Z,16.80
2023-07-18T06:26:49.979Z,17.00
2023-07-18T06:31:15.937Z,17.20
2023-07-18T06:35:42.707Z,17.40
2023-07-18T06:40:12.038Z,17.50
2023-07-18T06:44:37.640Z,17.40
2023-07-18T06:49:03.011Z,17.50
2023-07-18T06:53:28.595Z,17.60
2023-07-18T06:57:54.154Z,17.80
2023-07-18T07:02:19.502Z,17.90
2023-07-18T07:06:45.027Z,18.10
2023-07-18T07:11:11.133Z,18.30
2023-07-18T07:15:37.583Z,18.40
2023-07-18T07:20:05.303Z,18.60
2023-07-18T07:24:31.622Z,18.80
2023-07-18T07:28:57.076Z,18.80
2023-07-18T07:33:22.451Z,18.80
2023-07-18T07:37:48.311Z,19.00
2023-07-18T07:42:13.934Z,19.10
2023-07-18T07:46:38.978Z,19.20
2023-07-18T07:51:07.384Z,19.30
2023-07-18T07:55:33.053Z,19.50
2023-07-18T07:59:58.289Z,19.60
2023-07-18T08:04:23.727Z,19.60
2023-07-18T08:08:49.357Z,19.80
2023-07-18T08:13:18.142Z,19.90
2023-07-18T08:17:43.667Z,20.00
2023-07-18T08:22:10.178Z,20.10
2023-07-18T08:26:35.457Z,20.20
2023-07-18T08:31:04.419Z,20.50
2023-07-18T08:35:30.486Z,20.60
2023-07-18T08:39:56.087Z,20.80
2023-07-18T08:44:23.101Z,21.00
2023-07-18T08:48:51.914Z,21.20
2023-07-18T08:53:17.202Z,21.40
2023-07-18T08:57:42.786Z,21.60
2023-07-18T09:02:09.640Z,22.00
2023-07-18T09:06:34.992Z,22.20
2023-07-18T09:11:04.524Z,22.30
2023-07-18T09:15:30.853Z,22.60
2023-07-18T09:19:56.181Z,22.90
2023-07-18T09:24:31.978Z,23.20
2023-07-18T09:28:57.775Z,23.40
2023-07-18T09:33:25.815Z,23.30
2023-07-18T09:37:51.607Z,23.40
2023-07-18T09:42:20.255Z,23.60
2023-07-18T09:46:46.272Z,23.90
2023-07-18T09:51:16.695Z,23.90
2023-07-18T09:55:44.248Z,24.00
2023-07-18T10:00:13.105Z,24.10
2023-07-18T10:04:39.188Z,24.30
2023-07-18T10:09:05.028Z,24.60
2023-07-18T10:13:31.451Z,24.50
2023-07-18T10:18:17.250Z,24.80
2023-07-18T10:23:00.474Z,25.00
2023-07-18T10:27:39.277Z,25.20
2023-07-18T10:32:06.033Z,25.40
2023-07-18T10:36:31.484Z,25.50
2023-07-18T10:40:56.874Z,25.60
2023-07-18T10:45:22.335Z,25.20
2023-07-18T10:49:48.774Z,25.40
2023-07-18T10:54:14.345Z,25.70
2023-07-18T10:58:41.174Z,25.90
2023-07-18T11:03:06.355Z,26.00
2023-07-18T11:07:36.196Z,26.20
2023-07-18T11:12:01.479Z,26.50
2023-07-18T11:16:27.831Z,26.70
2023-07-18T11:20:55.215Z,26.80
2023-07-18T11:25:20.674Z,27.00
2023-07-18T11:29:58.801Z,27.20
2023-07-18T11:34:25.085Z,27.30
2023-07-18T11:38:53.351Z,27.30
2023-07-18T11:43:19.546Z,27.60
2023-07-18T11:47:48.572Z,27.70
2023-07-18T11:52:14.037Z,27.80
2023-07-18T11:56:39.532Z,27.80
2023-07-18T12:01:05.100Z,27.70
2023-07-18T12:05:30.342Z,27.90
2023-07-18T12:09:55.824Z,28.10
2023-07-18T12:14:21.196Z,28.10
2023-07-18T12:18:46.579Z,27.40
2023-07-18T12:23:11.999Z,27.10
2023-07-18T12:27:38.442Z,27.10
2023-07-18T12:32:05.797Z,27.10
2023-07-18T12:36:31.047Z,27.20
2023-07-18T12:40:56.446Z,27.50
2023-07-18T12:45:24.699Z,27.70
2023-07-18T12:54:19.157Z,28.10
2023-07-18T12:58:44.649Z,28.50
2023-07-18T13:03:10.360Z,28.60
2023-07-18T13:07:35.761Z,28.80
2023-07-18T13:12:01.224Z,29.00
2023-07-18T13:16:26.772Z,28.50
2023-07-18T13:20:52.247Z,28.40
2023-07-18T13:25:17.819Z,27.60
2023-07-18T13:29:44.101Z,26.80
2023-07-18T13:34:11.888Z,25.80
2023-07-18T13:38:39.722Z,25.20
2023-07-18T13:43:06.374Z,25.20
2023-07-18T13:47:32.233Z,25.70
2023-07-18T13:51:57.645Z,25.60
2023-07-18T13:56:23.262Z,25.80
2023-07-18T14:00:49.245Z,26.50
2023-07-18T14:05:14.563Z,27.20
2023-07-18T14:09:40.108Z,27.10
2023-07-18T14:14:05.506Z,27.50
2023-07-18T14:18:30.934Z,27.70
2023-07-18T14:22:56.488Z,27.80
2023-07-18T14:27:22.174Z,28.20
2023-07-18T14:31:47.552Z,28.50
2023-07-18T14:36:13.105Z,28.70
2023-07-18T14:40:38.630Z,28.90
2023-07-18T14:45:04.424Z,29.10
2023-07-18T14:49:29.617Z,29.10
2023-07-18T14:53:55.145Z,28.50
2023-07-18T14:58:21.768Z,28.40
2023-07-18T15:02:48.992Z,28.20
2023-07-18T15:07:14.986Z,27.60
2023-07-18T15:11:41.356Z,27.20
2023-07-18T15:16:06.724Z,27.50
2023-07-18T15:20:34.109Z,27.70
2023-07-18T15:24:59.451Z,27.60
2023-07-18T15:29:24.741Z,27.80
2023-07-18T15:33:50.739Z,28.00
2023-07-18T15:38:15.948Z,27.60
2023-07-18T15:42:41.807Z,27.40
2023-07-18T15:47:06.833Z,27.10
2023-07-18T15:51:32.896Z,26.80
2023-07-18T15:55:58.061Z,26.50
2023-07-18T16:00:23.478Z,26.10
2023-07-18T16:04:48.963Z,25.90
2023-07-18T16:09:14.573Z,25.60
2023-07-18T16:13:40.099Z,25.60
2023-07-18T16:18:05.694Z,25.70
2023-07-18T16:22:31.217Z,25.90
2023-07-18T16:26:57.377Z,25.80
2023-07-18T16:31:22.798Z,25.50
2023-07-18T16:35:48.547Z,25.40
2023-07-18T16:40:14.085Z,25.60
2023-07-18T16:44:39.550Z,25.30
2023-07-18T16:49:05.133Z,25.30
2023-07-18T16:53:30.384Z,25.10
2023-07-18T16:57:55.864Z,25.10
2023-07-18T17:02:21.487Z,25.10
2023-07-18T17:06:46.993Z,25.10
2023-07-18T17:11:12.551Z,25.00
2023-07-18T17:15:37.999Z,24.80
2023-07-18T17:20:08.172Z,24.60
2023-07-18T17:24:33.762Z,24.30
2023-07-18T17:28:59.591Z,24.00
2023-07-18T17:33:24.883Z,23.80
2023-07-18T17:37:50.510Z,23.70
2023-07-18T17:42:15.636Z,23.50
2023-07-18T17:46:41.066Z,23.20
2023-07-18T17:51:06.513Z,22.80
2023-07-18T17:55:32.117Z,22.60
2023-07-18T17:59:58.899Z,22.50
2023-07-18T18:04:24.227Z,22.60
2023-07-18T18:08:49.580Z,22.60
2023-07-18T18:13:16.024Z,22.50
2023-07-18T18:17:41.275Z,22.40
2023-07-18T18:22:06.859Z,22.50
2023-07-18T18:26:32.465Z,22.40
2023-07-18T18:30:57.923Z,22.30
2023-07-18T18:35:23.202Z,22.30
2023-07-18T18:39:48.772Z,22.00
2023-07-18T18:44:14.246Z,21.90
2023-07-18T18:48:39.666Z,21.70
2023-07-18T18:53:04.928Z,21.60
2023-07-18T18:57:31.163Z,21.50
2023-07-18T19:01:56.306Z,21.50
2023-07-18T19:06:22.836Z,21.50
2023-07-18T19:11:04.828Z,21.50
2023-07-18T19:15:32.817Z,21.30
2023-07-18T19:19:58.253Z,21.20
2023-07-18T19:24:23.772Z,21.00
2023-07-18T19:28:49.292Z,21.10
2023-07-18T19:33:14.781Z,21.00
2023-07-18T19:37:40.245Z,20.90
2023-07-18T19:42:07.024Z,20.80
2023-07-18T19:46:32.764Z,20.60
2023-07-18T19:50:58.260Z,20.50
2023-07-18T19:55:24.155Z,20.40
2023-07-18T19:59:49.792Z,20.30
2023-07-18T20:04:15.720Z,20.20
2023-07-18T20:08:41.539Z,20.10
2023-07-18T20:13:06.893Z,20.20
2023-07-18T20:17:32.356Z,20.20
2023-07-18T20:21:57.918Z,20.20
2023-07-18T20:26:23.617Z,20.20
2023-07-18T20:30:52.098Z,20.00
2023-07-18T20:35:17.446Z,19.90
2023-07-18T20:39:42.923Z,19.90
2023-07-18T20:44:09.177Z,20.50
2023-07-18T20:48:34.696Z,19.90
2023-07-18T20:53:00.607Z,19.70
2023-07-18T20:57:25.715Z,19.70
2023-07-18T21:01:51.439Z,19.70
2023-07-18T21:06:16.831Z,19.70
2023-07-18T21:10:42.281Z,19.60
2023-07-18T21:15:09.552Z,19.70
2023-07-18T21:19:34.933Z,19.70
2023-07-18T21:24:00.804Z,19.70
2023-07-18T21:28:26.544Z,19.60
2023-07-18T21:32:51.980Z,19.70
2023-07-18T21:37:17.300Z,19.40
2023-07-18T21:41:42.915Z,19.20
2023-07-18T21:46:08.502Z,19.10
2023-07-18T21:50:33.999Z,19.10
2023-07-18T21:54:59.576Z,19.00
2023-07-18T21:59:26.290Z,19.00
2023-07-18T22:03:51.893Z,18.90
2023-07-18T22:08:17.459Z,18.80
2023-07-18T22:12:43.086Z,18.80
2023-07-18T22:17:08.781Z,18.70
2023-07-18T22:21:34.213Z,18.50
2023-07-18T22:26:12.269Z,18.40
2023-07-18T22:30:39.866Z,18.30
2023-07-18T22:35:05.703Z,18.20
2023-07-18T22:39:36.494Z,18.20
2023-07-18T22:44:03.263Z,18.20
2023-07-18T22:48:28.824Z,19.30
2023-07-18T22:52:54.327Z,18.10
2023-07-18T22:57:19.926Z,18.20
2023-07-18T23:01:45.318Z,18.10
2023-07-18T23:06:10.636Z,18.10
2023-07-18T23:10:35.939Z,18.20
2023-07-18T23:15:01.236Z,18.10
2023-07-18T23:19:26.819Z,18.10
2023-07-18T23:23:52.304Z,18.00
2023-07-18T23:28:17.906Z,18.00
2023-07-18T23:32:43.179Z,18.00
2023-07-18T23:37:08.526Z,17.80
2023-07-18T23:41:33.878Z,18.70
2023-07-18T23:45:59.283Z,17.60
2023-07-18T23:50:25.011Z,17.50
2023-07-18T23:54:50.207Z,17.50
2023-07-18T23:59:15.671Z,17.50
